CW3508 Weather Reports


Display with metric or nautical units.
time (UTC)temp
F
wind
direction
speed
MPH
gust
MPH
rain 1hr
in
rain 24hr
in
rain mn
in
humidity
%
barometer
mb
20260901161515 93 32 0.0 0.0 0.00 0.00 0.00 63 1016.4
20260901161020 93 166 0.0 2.0 0.00 0.00 0.00 69 1016.4
20260901160017 91 166 0.0 0.0 0.00 0.00 0.00 69 1016.4
20260901155559 91 166 0.0 0.0 0.00 0.00 0.00 72 1016.6
20260901155056 90 166 0.0 0.0 0.00 0.00 0.00 72 1016.6
20260901154527 89 166 0.0 0.0 0.00 0.00 0.00 72 1016.6
20260901154036 88 155 0.0 0.0 0.00 0.00 0.00 72 1016.6
20260901153540 87 275 0.0 0.0 0.00 0.00 0.00 77 1016.6
20260901153024 86 178 0.0 0.0 0.00 0.00 0.00 74 1016.6
20260901152523 85 216 0.0 1.0 0.00 0.00 0.00 81 1016.6
20260901152022 84 206 0.0 1.0 0.00 0.00 0.00 81 1016.6
20260901151535 83 205 0.0 0.0 0.00 0.00 0.00 81 1016.6
20260901151028 83 308 0.0 0.0 0.00 0.00 0.00 84 1016.7
20260901150531 82 308 0.0 0.0 0.00 0.00 0.00 84 1016.7
20260901150038 82 308 0.0 0.0 0.00 0.00 0.00 85 1016.7
20260901145534 81 308 0.0 0.0 0.00 0.00 0.00 86 1016.6
20260901145036 81 308 0.0 0.0 0.00 0.00 0.00 86 1016.6
20260901144540 81 308 0.0 0.0 0.00 0.00 0.00 87 1016.6
20260901144023 80 308 0.0 0.0 0.00 0.00 0.00 89 1016.8
20260901143525 80 308 0.0 0.0 0.00 0.00 0.00 89 1016.8
20260901143033 80 308 0.0 0.0 0.00 0.00 0.00 92 1016.8
20260901142514 80 308 0.0 0.0 0.00 0.00 0.00 92 1016.7
20260901142036 79 308 0.0 0.0 0.00 0.00 0.00 92 1016.7
20260901141522 79 308 0.0 0.0 0.00 0.00 0.00 93 1016.7
20260901141059 78 308 0.0 0.0 0.00 0.00 0.00 93 1016.6
20260901140529 78 308 0.0 0.0 0.00 0.00 0.00 94 1016.6
20260901140035 78 308 0.0 0.0 0.00 0.00 0.00 94 1016.6
20260901135518 78 308 0.0 0.0 0.00 0.00 0.00 94 1016.6
20260901134536 77 308 0.0 0.0 0.00 0.00 0.00 95 1016.6
20260901134037 77 308 0.0 0.0 0.00 0.00 0.00 95 1016.7
20260901133540 76 308 0.0 0.0 0.00 0.00 0.00 95 1016.7
20260901133030 76 308 0.0 0.0 0.00 0.00 0.00 95 1016.7
20260901132536 76 308 0.0 0.0 0.00 0.00 0.00 95 1016.7
20260901132019 76 308 0.0 0.0 0.00 0.00 0.00 95 1016.7
20260901131518 76 308 0.0 0.0 0.00 0.00 0.00 95 1016.7
20260901131058 75 308 0.0 0.0 0.00 0.00 0.00 95 1016.7
20260901130536 75 308 0.0 0.0 0.00 0.00 0.00 95 1016.7
20260901130039 75 308 0.0 0.0 0.00 0.00 0.00 95 1016.7
20260901125528 75 308 0.0 0.0 0.00 0.00 0.00 95 1016.6
20260901125034 75 308 0.0 0.0 0.00 0.00 0.00 95 1016.6
20260901124541 75 308 0.0 0.0 0.00 0.00 0.00 95 1016.6
20260901124027 75 308 0.0 0.0 0.00 0.00 0.00 95 1016.6
20260901123526 74 308 0.0 0.0 0.00 0.00 0.00 95 1016.6
20260901123029 74 308 0.0 0.0 0.00 0.00 0.00 95 1016.6
20260901122532 74 308 0.0 0.0 0.00 0.00 0.00 95 1016.4
20260901122057 74 308 0.0 0.0 0.00 0.00 0.00 95 1016.4
20260901121554 74 308 0.0 0.0 0.00 0.00 0.00 95 1016.4
20260901121050 74 308 0.0 0.0 0.00 0.00 0.00 95 1016.1
20260901120522 74 308 0.0 0.0 0.00 0.00 0.00 95 1016.1
20260901120023 74 308 0.0 0.0 0.00 0.00 0.00 95 1016.1
20260901115527 74 308 0.0 0.0 0.00 0.00 0.00 94 1016.1
20260901115039 74 308 0.0 0.0 0.00 0.00 0.00 94 1016.1
20260901114539 74 308 0.0 0.0 0.00 0.00 0.00 94 1016.1
20260901114026 74 308 0.0 0.0 0.00 0.00 0.00 94 1015.7
20260901113533 74 308 0.0 0.0 0.00 0.00 0.00 94 1015.7
20260901113052 74 308 0.0 0.0 0.00 0.00 0.00 94 1015.7
20260901112529 74 308 0.0 0.0 0.00 0.00 0.00 94 1015.5
20260901112026 74 308 0.0 0.0 0.00 0.00 0.00 94 1015.5
20260901111522 74 308 0.0 0.0 0.00 0.00 0.00 94 1015.5
20260901111032 74 308 0.0 0.0 0.00 0.00 0.00 94 1015.5
20260901110533 74 308 0.0 0.0 0.00 0.00 0.00 94 1015.5
20260901110033 74 308 0.0 0.0 0.00 0.00 0.00 94 1015.5
20260901105522 74 308 0.0 0.0 0.00 0.00 0.00 94 1015.4
20260901105030 74 308 0.0 0.0 0.00 0.00 0.00 94 1015.4
20260901104520 74 308 0.0 0.0 0.00 0.00 0.00 94 1015.4
20260901104037 74 308 0.0 0.0 0.00 0.00 0.00 94 1015.3
20260901103518 74 308 0.0 0.0 0.00 0.00 0.00 94 1015.3
20260901103029 74 308 0.0 0.0 0.00 0.00 0.00 94 1015.3
20260901102525 75 308 0.0 0.0 0.00 0.00 0.00 94 1015.2
20260901102037 75 308 0.0 0.0 0.00 0.00 0.00 94 1015.2
20260901101522 75 308 0.0 0.0 0.00 0.00 0.00 94 1015.2
20260901101033 75 308 0.0 0.0 0.00 0.00 0.00 94 1015.2
20260901100526 75 308 0.0 0.0 0.00 0.00 0.00 94 1015.2
20260901100025 75 308 0.0 0.0 0.00 0.00 0.00 94 1015.2
20260901095522 75 308 0.0 0.0 0.00 0.00 0.00 94 1015.3
20260901095019 75 308 0.0 0.0 0.00 0.00 0.00 94 1015.3
20260901094528 75 308 0.0 0.0 0.00 0.00 0.00 94 1015.3
20260901094031 75 308 0.0 0.0 0.00 0.00 0.00 94 1015.0
20260901093033 75 308 0.0 0.0 0.00 0.00 0.00 94 1015.0
20260901092523 75 308 0.0 0.0 0.00 0.00 0.00 94 1015.0
20260901092030 75 308 0.0 0.0 0.00 0.00 0.00 93 1015.0
20260901091517 75 308 0.0 0.0 0.00 0.00 0.00 93 1015.0
20260901091023 76 308 0.0 0.0 0.00 0.00 0.00 93 1015.0
20260901090536 76 308 0.0 0.0 0.00 0.00 0.00 93 1015.0
20260901085529 76 308 0.0 0.0 0.00 0.00 0.00 94 1014.9
20260901085029 76 308 0.0 0.0 0.00 0.00 0.00 93 1014.9
20260901084529 76 308 0.0 0.0 0.00 0.00 0.00 93 1014.9
20260901084022 76 308 0.0 0.0 0.00 0.00 0.00 93 1014.9
20260901083525 76 308 0.0 0.0 0.00 0.00 0.00 93 1014.9
20260901083034 76 308 0.0 0.0 0.00 0.00 0.00 93 1014.9
20260901082521 76 308 0.0 0.0 0.00 0.00 0.00 93 1014.8
20260901082032 76 308 0.0 0.0 0.00 0.00 0.00 93 1014.8
20260901081541 76 308 0.0 0.0 0.00 0.00 0.00 93 1014.8
20260901081045 76 308 0.0 0.0 0.00 0.00 0.00 93 1014.6
20260901080533 76 308 0.0 0.0 0.00 0.00 0.00 92 1014.6
20260901080036 76 308 0.0 0.0 0.00 0.00 0.00 92 1014.6
20260901075538 76 308 0.0 0.0 0.00 0.00 0.00 92 1014.5
20260901075027 76 308 0.0 0.0 0.00 0.00 0.00 92 1014.5
20260901074529 76 308 0.0 0.0 0.00 0.00 0.00 92 1014.5
20260901074035 76 308 0.0 0.0 0.00 0.00 0.00 92 1014.5
20260901073537 76 308 0.0 0.0 0.00 0.00 0.00 92 1014.5
20260901073024 76 308 0.0 0.0 0.00 0.00 0.00 92 1014.5
20260901072526 76 308 0.0 0.0 0.00 0.00 0.00 92 1014.5
20260901072032 77 308 0.0 0.0 0.00 0.00 0.00 92 1014.5
20260901071519 77 308 0.0 0.0 0.00 0.00 0.00 91 1014.5
20260901071023 77 308 0.0 0.0 0.00 0.00 0.00 91 1014.5
20260901070554 77 308 0.0 0.0 0.00 0.00 0.00 91 1014.5
20260901070029 77 308 0.0 0.0 0.00 0.00 0.00 91 1014.5
20260901065520 77 308 0.0 0.0 0.00 0.00 0.00 91 1014.5
20260901065021 77 308 0.0 0.0 0.00 0.00 0.00 91 1014.5
20260901064520 77 308 0.0 0.0 0.00 0.00 0.00 91 1014.5
20260901064022 77 308 0.0 0.0 0.00 0.00 0.00 91 1014.7
20260901063518 77 308 0.0 0.0 0.00 0.00 0.00 91 1014.7
20260901063038 77 308 0.0 0.0 0.00 0.00 0.00 90 1014.7
20260901062533 77 308 0.0 0.0 0.00 0.00 0.00 90 1014.8
20260901062035 77 308 0.0 0.0 0.00 0.00 0.00 90 1014.8
20260901061539 77 308 0.0 0.0 0.00 0.00 0.00 90 1014.8
20260901061035 78 308 0.0 0.0 0.00 0.00 0.00 90 1014.9
20260901060523 78 308 0.0 0.0 0.00 0.00 0.00 90 1014.9
20260901060058 78 308 0.0 0.0 0.00 0.00 0.00 90 1014.9
20260901055544 78 308 0.0 0.0 0.00 0.00 0.00 89 1014.8
20260901055040 78 308 0.0 0.0 0.00 0.00 0.00 89 1014.8
20260901054519 78 308 0.0 0.0 0.00 0.00 0.00 89 1014.8
20260901054036 78 308 0.0 0.0 0.00 0.00 0.00 89 1014.9
20260901053533 78 308 0.0 0.0 0.00 0.00 0.00 89 1014.9
20260901053019 78 308 0.0 0.0 0.00 0.00 0.00 89 1014.9
20260901052527 78 308 0.0 0.0 0.00 0.00 0.00 88 1014.9
20260901052035 78 308 0.0 0.0 0.00 0.00 0.00 88 1014.9
20260901051527 78 308 0.0 0.0 0.00 0.00 0.00 88 1014.9
20260901051017 78 308 0.0 0.0 0.00 0.00 0.00 88 1014.7
20260901050520 78 308 0.0 0.0 0.00 0.00 0.00 88 1014.7
20260901050036 78 308 0.0 0.0 0.00 0.00 0.00 88 1014.7
20260901045535 78 308 0.0 0.0 0.00 0.00 0.00 87 1014.9
20260901045041 79 308 0.0 0.0 0.00 0.00 0.00 87 1014.9
20260901044555 79 308 0.0 0.0 0.00 0.00 0.00 87 1014.9
20260901044016 79 308 0.0 0.0 0.00 0.00 0.00 87 1014.8
20260901043537 79 308 0.0 0.0 0.00 0.00 0.00 86 1014.8
20260901043015 79 308 0.0 0.0 0.00 0.00 0.00 86 1014.8
20260901042535 79 308 0.0 0.0 0.00 0.00 0.00 86 1014.9
20260901042037 79 308 0.0 0.0 0.00 0.00 0.00 86 1014.9
20260901041538 79 308 0.0 0.0 0.00 0.00 0.00 86 1014.9
20260901041021 79 308 0.0 0.0 0.00 0.00 0.00 85 1014.9
20260901040532 79 308 0.0 0.0 0.00 0.00 0.00 85 1014.9
20260901040017 80 308 0.0 0.0 0.00 0.00 0.00 85 1014.9
20260901035523 80 308 0.0 0.0 0.00 0.00 0.00 85 1015.0
20260901035058 80 308 0.0 0.0 0.00 0.00 0.00 84 1015.0
20260901034521 80 308 0.0 0.0 0.00 0.00 0.00 84 1015.0
20260901034032 80 308 0.0 0.0 0.00 0.00 0.00 84 1015.0
20260901033549 80 308 0.0 0.0 0.00 0.00 0.00 84 1015.0
20260901033032 80 308 0.0 0.0 0.00 0.00 0.00 84 1015.0
20260901032515 80 308 0.0 0.0 0.00 0.00 0.00 83 1015.0
20260901031529 81 308 0.0 0.0 0.00 0.00 0.00 83 1015.0
20260901031029 81 308 0.0 0.0 0.00 0.00 0.00 83 1015.0
20260901030524 81 308 0.0 0.0 0.00 0.00 0.00 83 1015.0
20260901030044 81 308 0.0 0.0 0.00 0.00 0.00 83 1015.0
20260901025556 81 308 0.0 0.0 0.00 0.00 0.00 82 1015.0
20260901025043 81 308 0.0 0.0 0.00 0.00 0.00 82 1015.0
20260901024526 81 308 0.0 0.0 0.00 0.00 0.00 82 1015.0
20260901024025 82 308 0.0 0.0 0.00 0.00 0.00 81 1015.0
20260901023600 82 308 0.0 0.0 0.00 0.00 0.00 81 1015.0
20260901023043 82 308 0.0 0.0 0.00 0.00 0.00 81 1015.0
20260901022528 82 308 0.0 0.0 0.00 0.00 0.00 80 1014.9
20260901022014 82 308 0.0 0.0 0.00 0.00 0.00 80 1014.9
20260901021524 82 308 0.0 0.0 0.00 0.00 0.00 80 1014.9
20260901021042 83 308 0.0 0.0 0.00 0.00 0.00 79 1014.8
20260901020532 83 308 0.0 0.0 0.00 0.00 0.00 79 1014.8
20260901020042 83 308 0.0 0.0 0.00 0.00 0.00 79 1014.8
20260831213525 92 317 0.0 1.0 0.00 0.00 0.00 64 1014.0
20260831213028 92 317 0.0 0.0 0.00 0.00 0.00 62 1014.0
20260831212533 92 317 0.0 0.0 0.00 0.00 0.00 64 1014.2
20260831212018 92 316 0.0 1.0 0.00 0.00 0.00 64 1014.2
20260831211549 92 241 0.0 1.0 0.00 0.00 0.00 62 1014.2
20260831211035 92 241 0.0 1.0 0.00 0.00 0.00 61 1014.4
20260831210530 92 273 0.0 0.0 0.00 0.00 0.00 62 1014.4
20260831210028 92 273 0.0 0.0 0.00 0.00 0.00 62 1014.4
20260831205527 93 273 0.0 0.0 0.00 0.00 0.00 62 1014.4
20260831205043 93 275 0.0 1.0 0.00 0.00 0.00 63 1014.4
20260831204541 93 277 0.0 0.0 0.00 0.00 0.00 62 1014.4
20260831204041 93 277 0.0 0.0 0.00 0.00 0.00 62 1014.4
20260831203555 93 277 0.0 0.0 0.00 0.00 0.00 61 1014.4
20260831203020 93 272 0.0 1.0 0.00 0.00 0.00 62 1014.4
20260831202554 93 218 0.0 1.0 0.00 0.00 0.00 61 1014.5
20260831202040 94 218 0.0 0.0 0.00 0.00 0.00 61 1014.5
20260831201016 94 217 0.0 0.0 0.00 0.00 0.00 60 1014.8
20260831200526 94 218 0.0 0.0 0.00 0.00 0.00 60 1014.8
20260831200016 95 327 0.0 1.0 0.00 0.00 0.00 58 1015.4
20260831185516 95 327 0.0 1.0 0.00 0.00 0.00 59 1015.5
20260831185031 95 220 0.0 2.0 0.00 0.00 0.00 59 1015.5
20260831184548 95 257 0.0 1.0 0.00 0.00 0.00 60 1015.5
20260831184032 95 281 0.0 0.0 0.00 0.00 0.00 60 1015.8
20260831183534 95 191 0.0 1.0 0.00 0.00 0.00 59 1015.8
20260831183021 95 284 0.0 1.0 0.00 0.00 0.00 61 1015.8
20260831182532 95 284 0.0 1.0 0.00 0.00 0.00 62 1016.1
20260831182024 95 284 0.0 1.0 0.00 0.00 0.00 61 1016.1
20260831181519 95 281 0.0 0.0 0.00 0.00 0.00 60 1016.1
20260831181020 95 260 0.0 0.0 0.00 0.00 0.00 61 1016.1
20260831180527 95 175 0.0 0.0 0.00 0.00 0.00 61 1016.1
20260831180033 95 175 0.0 1.0 0.00 0.00 0.00 60 1016.1
20260831175529 95 216 0.0 1.0 0.00 0.00 0.00 60 1016.4
20260831175029 95 232 0.0 0.0 0.00 0.00 0.00 61 1016.4
20260831174529 95 226 0.0 0.0 0.00 0.00 0.00 63 1016.4
20260831174026 95 177 0.0 0.0 0.00 0.00 0.00 61 1016.6
20260831173523 95 315 0.0 0.0 0.00 0.00 0.00 62 1016.6
20260831173030 95 315 0.0 1.0 0.00 0.00 0.00 62 1016.6
20260831172530 95 315 0.0 1.0 0.00 0.00 0.00 63 1016.6
20260831172023 94 167 0.0 1.0 0.00 0.00 0.00 63 1016.6
20260831171528 94 140 0.0 1.0 0.00 0.00 0.00 61 1016.6
20260831171033 94 165 0.0 1.0 0.00 0.00 0.00 62 1016.6
20260831170518 94 315 0.0 1.0 0.00 0.00 0.00 62 1016.6
20260831170051 94 229 0.0 1.0 0.00 0.00 0.00 66 1016.6
20260831165531 93 267 0.0 1.0 0.00 0.00 0.00 65 1017.0
20260831165044 93 189 0.0 0.0 0.00 0.00 0.00 65 1017.0
20260831164529 92 296 0.0 1.0 0.00 0.00 0.00 70 1017.0
20260831164031 91 302 0.0 1.0 0.00 0.00 0.00 69 1017.1
20260831163546 90 302 0.0 1.0 0.00 0.00 0.00 72 1017.1
20260831163028 89 302 0.0 1.0 0.00 0.00 0.00 75 1017.1
20260831162525 89 178 0.0 0.0 0.00 0.00 0.00 72 1017.1
20260831162033 88 178 0.0 0.0 0.00 0.00 0.00 73 1017.1
20260831161529 88 178 0.0 0.0 0.00 0.00 0.00 72 1017.1